« Back
NWS Peachtree City, Ga » Text Product » CSG Terminal Aerodrome Forecast


Printer-friendly Version
Current Version              Previous Versions:   1  2  3  4  5  6  7  8  9  

Terminal Aerodrome Forecast

366
FTUS42 KFFC 311131
TAFCSG
TAF
KCSG 311131Z 3112/0112 05005KT P6SM FEW070
     FM311400 07009KT P6SM SCT025 SCT120
     FM311600 06010KT P6SM SCT050
     FM010000 09005KT P6SM SCT080=

USA.gov is the U.S. government's official web portal to all federal, state and local government web resources and services.